Terminal Aerodrome Forecast
Issued by NWS Springfield, MO

Home | Current Version | Previous Version | Text Only | Print | Product List | Glossary On
Versions: 1 2 3 4 5 6 7 8 9 10 11 12 13 14 15 16 17 18 19 20 21 22 23
000
FTUS43 KSGF 211620 AAA
TAFSGF
TAF AMD
KSGF 211620Z 2116/2212 16013G26KT P6SM SCT030
     FM212100 17022G30KT P6SM BKN035
     FM220200 17019G28KT 6SM -SHRA VCTS OVC025CB
     FM220600 20012KT P6SM SCT050 SCT100
     FM221100 23013KT P6SM BKN025=

USA.gov is the U.S. government's official web portal to all federal, state and local government web resources and services.